createdAt,value
2023-04-29T00:02:14.800Z,100506.25
2023-04-29T00:04:42.444Z,100512.44
2023-04-29T00:07:09.977Z,100518.63
2023-04-29T00:09:38.679Z,100522.16
2023-04-29T00:12:06.078Z,100535.47
2023-04-29T00:14:33.487Z,100530.13
2023-04-29T00:17:00.884Z,100524.78
2023-04-29T00:19:29.370Z,100532.75
2023-04-29T00:21:56.851Z,100546.91
2023-04-29T00:24:24.254Z,100557.53
2023-04-29T00:26:51.807Z,100563.69
2023-04-29T00:29:19.413Z,100565.47
2023-04-29T00:31:47.078Z,100559.19
2023-04-29T00:34:14.442Z,100573.31
2023-04-29T00:36:41.828Z,100578.63
2023-04-29T00:39:09.166Z,100574.19
2023-04-29T00:41:37.075Z,100584.78
2023-04-29T00:44:04.586Z,100585.66
2023-04-29T00:46:32.164Z,100583.88
2023-04-29T00:49:00.402Z,100587.34
2023-04-29T00:51:28.274Z,100580.97
2023-04-29T00:53:55.852Z,100585.19
2023-04-29T00:56:23.334Z,100594.00
2023-04-29T00:58:51.852Z,100593.00
2023-04-29T01:01:20.304Z,100608.94
2023-04-29T01:07:42.495Z,100618.56
2023-04-29T01:10:25.907Z,100632.72
2023-04-29T01:13:17.909Z,100630.84
2023-04-29T01:16:11.749Z,100640.53
2023-04-29T01:18:56.834Z,100644.84
2023-04-29T01:21:25.817Z,100649.25
2023-04-29T01:23:56.422Z,100653.78
2023-04-29T01:26:24.450Z,100662.66
2023-04-29T01:29:05.357Z,100664.34
2023-04-29T01:32:04.753Z,100665.34
2023-04-29T01:35:13.228Z,100682.25
2023-04-29T01:37:58.357Z,100682.22
2023-04-29T01:40:38.635Z,100684.88
2023-04-29T01:43:09.698Z,100691.13
2023-04-29T01:45:42.120Z,100677.47
2023-04-29T01:48:09.904Z,100677.59
2023-04-29T01:50:37.238Z,100677.59
2023-04-29T01:53:04.623Z,100681.94
2023-04-29T01:55:31.973Z,100693.47
2023-04-29T01:57:59.404Z,100692.69
2023-04-29T02:00:26.795Z,100697.13
2023-04-29T02:02:55.014Z,100704.19
2023-04-29T02:05:22.457Z,100689.97
2023-04-29T02:07:49.838Z,100701.56
2023-04-29T02:10:17.274Z,100694.28
2023-04-29T02:12:44.679Z,100707.75
2023-04-29T02:19:17.518Z,100732.88
2023-04-29T02:21:44.887Z,100739.09
2023-04-29T02:24:12.316Z,100732.94
2023-04-29T02:26:39.933Z,100730.31
2023-04-29T02:29:07.474Z,100717.88
2023-04-29T02:31:34.956Z,100707.28
2023-04-29T02:34:02.411Z,100708.06
2023-04-29T02:36:29.871Z,100691.25
2023-04-29T02:38:57.371Z,100671.66
2023-04-29T02:41:25.884Z,100674.41
2023-04-29T02:43:53.303Z,100669.06
2023-04-29T02:46:20.786Z,100638.97
2023-04-29T02:48:48.320Z,100630.06
2023-04-29T02:51:16.330Z,100619.44
2023-04-29T02:53:43.916Z,100599.91
2023-04-29T02:56:11.692Z,100597.19
2023-04-29T02:58:39.074Z,100585.59
2023-04-29T03:01:06.503Z,100582.81
2023-04-29T03:03:34.052Z,100584.47
2023-04-29T03:06:01.460Z,100589.59
2023-04-29T03:08:28.942Z,100598.38
2023-04-29T03:10:56.390Z,100584.75
2023-04-29T03:13:23.789Z,100591.75
2023-04-29T03:15:51.211Z,100610.47
2023-04-29T03:18:18.815Z,100626.56
2023-04-29T03:20:46.483Z,100632.78
2023-04-29T03:23:13.834Z,100628.38
2023-04-29T03:25:41.761Z,100639.06
2023-04-29T03:28:09.182Z,100629.19
2023-04-29T03:30:36.794Z,100646.94
2023-04-29T03:33:04.315Z,100645.13
2023-04-29T03:35:31.714Z,100638.97
2023-04-29T03:37:59.112Z,100645.06
2023-04-29T03:40:26.457Z,100645.16
2023-04-29T03:42:53.901Z,100662.16
2023-04-29T03:45:21.287Z,100657.75
2023-04-29T03:47:48.788Z,100646.16
2023-04-29T03:50:16.560Z,100675.88
2023-04-29T03:52:44.333Z,100661.66
2023-04-29T03:55:12.732Z,100656.31
2023-04-29T03:57:42.198Z,100648.53
2023-04-29T04:00:10.451Z,100643.28
2023-04-29T04:02:37.968Z,100627.41
2023-04-29T04:05:05.771Z,100619.50
2023-04-29T04:07:33.182Z,100609.81
2023-04-29T04:10:00.629Z,100604.56
2023-04-29T04:12:27.987Z,100591.31
2023-04-29T04:14:55.696Z,100589.63
2023-04-29T04:17:23.110Z,100570.13
2023-04-29T04:19:51.136Z,100549.72
2023-04-29T04:22:19.120Z,100554.16
2023-04-29T04:24:46.504Z,100547.09
2023-04-29T04:27:13.928Z,100549.72
2023-04-29T04:29:41.346Z,100546.16
2023-04-29T04:32:08.872Z,100554.06
2023-04-29T04:34:37.037Z,100557.63
2023-04-29T04:37:04.355Z,100574.44
2023-04-29T04:39:31.378Z,100564.72
2023-04-29T04:41:58.858Z,100587.66
2023-04-29T04:44:26.311Z,100585.06
2023-04-29T04:46:53.681Z,100593.84
2023-04-29T04:49:21.115Z,100601.78
2023-04-29T04:51:48.462Z,100601.81
2023-04-29T04:54:15.910Z,100592.88
2023-04-29T04:56:43.336Z,100620.31
2023-04-29T04:59:10.789Z,100624.03
2023-04-29T05:01:38.349Z,100625.78
2023-04-29T05:04:06.100Z,100634.72
2023-04-29T05:06:33.536Z,100636.63
2023-04-29T05:09:00.894Z,100631.41
2023-04-29T05:11:28.254Z,100634.19
2023-04-29T05:13:55.643Z,100620.09
2023-04-29T05:16:23.037Z,100616.59
2023-04-29T05:18:50.462Z,100606.03
2023-04-29T05:21:17.946Z,100592.78
2023-04-29T05:23:45.390Z,100582.16
2023-04-29T05:26:12.766Z,100580.41
2023-04-29T05:28:40.142Z,100578.66
2023-04-29T05:31:07.515Z,100563.66
2023-04-29T05:33:34.902Z,100564.53
2023-04-29T05:36:02.445Z,100554.81
2023-04-29T05:38:29.870Z,100537.16
2023-04-29T05:40:57.381Z,100534.50
2023-04-29T05:43:25.000Z,100538.94
2023-04-29T05:45:52.376Z,100531.00
2023-04-29T05:48:19.829Z,100545.16
2023-04-29T05:50:48.623Z,100537.22
2023-04-29T05:53:16.127Z,100545.19
2023-04-29T05:55:45.282Z,100532.81
2023-04-29T05:58:13.366Z,100531.94
2023-04-29T06:00:41.200Z,100528.41
2023-04-29T06:03:08.771Z,100519.56
2023-04-29T06:05:36.701Z,100513.38
2023-04-29T06:08:05.860Z,100504.56
2023-04-29T06:10:33.998Z,100505.44
2023-04-29T06:13:01.393Z,100489.47
2023-04-29T06:15:28.879Z,100482.41
2023-04-29T06:17:56.625Z,100473.56
2023-04-29T06:20:24.624Z,100467.41
2023-04-29T06:22:52.093Z,100472.69
2023-04-29T06:25:19.571Z,100457.66
2023-04-29T06:27:47.157Z,100446.16
2023-04-29T06:30:14.654Z,100433.75
2023-04-29T06:32:42.139Z,100433.75
2023-04-29T06:35:09.875Z,100433.72
2023-04-29T06:37:38.175Z,100433.69
2023-04-29T06:40:06.937Z,100440.69
2023-04-29T06:42:34.848Z,100432.66
2023-04-29T06:45:02.354Z,100414.03
2023-04-29T06:47:29.482Z,100420.09
2023-04-29T06:49:56.930Z,100416.50
2023-04-29T06:52:24.450Z,100398.72
2023-04-29T06:54:51.952Z,100388.91
2023-04-29T06:57:19.509Z,100374.66
2023-04-29T06:59:47.517Z,100375.41
2023-04-29T07:02:16.621Z,100335.81
2023-04-29T07:04:44.522Z,100332.28
2023-04-29T07:07:12.743Z,100315.44
2023-04-29T07:09:40.268Z,100353.38
2023-04-29T07:12:08.108Z,100326.00
2023-04-29T07:14:37.756Z,100313.66
2023-04-29T07:17:06.552Z,100319.88
2023-04-29T07:19:35.029Z,100316.34
2023-04-29T07:22:04.795Z,100334.91
2023-04-29T07:24:33.062Z,100311.94
2023-04-29T07:29:42.841Z,100342.25
2023-04-29T07:32:10.181Z,100391.91
2023-04-29T07:34:38.231Z,100413.25
2023-04-29T07:37:05.594Z,100450.50
2023-04-29T07:39:32.964Z,100460.28
2023-04-29T07:42:00.460Z,100499.22
2023-04-29T07:44:27.867Z,100513.41
2023-04-29T07:46:55.626Z,100513.44
2023-04-29T07:49:23.230Z,100530.25
2023-04-29T07:51:50.606Z,100551.50
2023-04-29T07:54:19.601Z,100558.59
2023-04-29T07:56:47.218Z,100558.59
2023-04-29T07:59:14.850Z,100524.03
2023-04-29T08:01:42.700Z,100517.84
2023-04-29T08:04:10.539Z,100515.19
2023-04-29T08:06:38.369Z,100508.97
2023-04-29T08:09:05.838Z,100508.97
2023-04-29T08:16:22.479Z,100476.25
2023-04-29T08:18:51.217Z,100462.06
2023-04-29T08:21:19.702Z,100468.28
2023-04-29T08:23:47.435Z,100461.19
2023-04-29T08:26:15.482Z,100474.50
2023-04-29T08:28:42.899Z,100460.31
2023-04-29T08:31:20.186Z,100470.94
2023-04-29T08:33:47.969Z,100486.84
2023-04-29T08:36:15.583Z,100500.09
2023-04-29T08:38:44.354Z,100480.63
2023-04-29T08:41:12.013Z,100477.06
2023-04-29T08:43:42.558Z,100470.84
2023-04-29T08:46:11.050Z,100455.81
2023-04-29T08:48:42.562Z,100455.81
2023-04-29T08:51:13.957Z,100427.53
2023-04-29T08:53:41.309Z,100434.59
2023-04-29T08:56:20.723Z,100406.31
2023-04-29T08:58:54.784Z,100411.59
2023-04-29T09:01:23.181Z,100390.38
2023-04-29T09:03:58.666Z,100405.44
2023-04-29T09:06:26.869Z,100404.53
2023-04-29T09:08:54.383Z,100384.19
2023-04-29T09:11:22.643Z,100404.56
2023-04-29T09:13:50.000Z,100374.47
2023-04-29T09:16:17.387Z,100393.91
2023-04-29T09:18:50.648Z,100408.09
2023-04-29T09:21:21.741Z,100407.19
2023-04-29T09:23:53.836Z,100399.25
2023-04-29T09:26:22.474Z,100393.94
2023-04-29T09:29:14.373Z,100406.28
2023-04-29T09:31:42.569Z,100427.47
2023-04-29T09:34:12.869Z,100411.47
2023-04-29T09:36:51.249Z,100385.84
2023-04-29T09:39:20.433Z,100378.66
2023-04-29T09:41:53.618Z,100381.97
2023-04-29T09:44:33.620Z,100350.97
2023-04-29T09:47:07.583Z,100317.31
2023-04-29T09:49:38.364Z,100317.19
2023-04-29T09:52:11.682Z,100312.63
2023-04-29T09:54:41.991Z,100266.66
2023-04-29T09:57:11.125Z,100243.59
2023-04-29T09:59:40.649Z,100296.41
2023-04-29T10:02:15.728Z,100231.88
2023-04-29T10:04:46.855Z,100228.25
2023-04-29T10:07:16.994Z,100232.63
2023-04-29T10:09:49.674Z,100196.28
2023-04-29T10:12:19.082Z,100189.19
2023-04-29T10:15:04.149Z,100174.25
2023-04-29T10:17:45.296Z,100175.06
2023-04-29T10:20:16.763Z,100172.28
2023-04-29T10:22:48.828Z,100124.78
2023-04-29T10:25:19.198Z,100114.13
2023-04-29T10:27:47.619Z,100158.28
2023-04-29T10:30:16.773Z,100130.78
2023-04-29T10:32:50.886Z,100124.69
2023-04-29T10:35:22.629Z,100128.25
2023-04-29T10:37:50.435Z,100109.66
2023-04-29T10:40:23.279Z,100091.09
2023-04-29T10:42:54.885Z,100073.38
2023-04-29T10:45:30.128Z,100084.84
2023-04-29T10:48:06.348Z,100131.47
2023-04-29T10:50:54.237Z,100116.28
2023-04-29T10:53:22.107Z,100137.19
2023-04-29T10:56:03.625Z,100107.72
2023-04-29T10:58:41.956Z,100082.34
2023-04-29T11:01:13.270Z,100091.16
2023-04-29T11:03:55.960Z,100097.94
2023-04-29T11:06:42.273Z,100085.25
2023-04-29T11:09:30.795Z,100065.78
2023-04-29T11:12:09.592Z,100075.97
2023-04-29T11:14:43.172Z,100005.75
2023-04-29T11:17:15.500Z,100029.34
2023-04-29T11:19:46.412Z,100039.63
2023-04-29T11:22:34.141Z,99994.69
2023-04-29T11:25:07.412Z,100049.94
2023-04-29T11:27:40.499Z,99986.53
2023-04-29T11:30:08.818Z,100034.84
2023-04-29T11:32:40.783Z,100016.00
2023-04-29T11:35:19.761Z,99963.81
2023-04-29T11:37:47.642Z,99999.66
2023-04-29T11:40:15.605Z,99904.06
2023-04-29T11:42:50.235Z,99943.44
2023-04-29T11:45:20.535Z,99927.47
2023-04-29T11:47:49.051Z,99909.88
2023-04-29T11:50:19.669Z,99920.44
2023-04-29T11:52:48.688Z,99926.19
2023-04-29T11:55:16.205Z,99906.34
2023-04-29T11:57:43.806Z,99944.28
2023-04-29T12:00:12.970Z,99893.47
2023-04-29T12:02:43.829Z,99978.94
2023-04-29T12:05:13.278Z,99995.53
2023-04-29T12:07:41.244Z,99984.94
2023-04-29T12:10:11.141Z,99949.06
2023-04-29T12:12:44.201Z,99943.72
2023-04-29T12:15:12.835Z,99924.47
2023-04-29T12:17:40.585Z,99936.91
2023-04-29T12:20:11.998Z,99978.19
2023-04-29T12:22:39.843Z,99923.66
2023-04-29T12:25:08.348Z,99974.50
2023-04-29T12:27:36.942Z,99953.47
2023-04-29T12:30:09.730Z,99942.06
2023-04-29T12:32:37.632Z,99926.44
2023-04-29T12:35:05.490Z,99928.84
2023-04-29T12:37:33.395Z,99943.59
2023-04-29T12:40:00.752Z,99917.16
2023-04-29T12:42:34.400Z,99875.78
2023-04-29T12:45:01.948Z,99893.44
2023-04-29T12:47:37.380Z,99894.31
2023-04-29T12:50:07.284Z,99888.06
2023-04-29T12:52:36.528Z,99888.84
2023-04-29T12:55:05.020Z,99888.97
2023-04-29T12:57:32.609Z,99924.91
2023-04-29T13:00:00.340Z,99917.03
2023-04-29T13:02:28.610Z,99917.75
2023-04-29T13:04:56.455Z,99902.63
2023-04-29T13:07:23.920Z,99893.06
2023-04-29T13:09:51.335Z,99847.16
2023-04-29T13:15:01.012Z,99861.78
2023-04-29T13:17:28.735Z,99851.28
2023-04-29T13:19:56.776Z,99828.44
2023-04-29T13:22:24.283Z,99848.41
2023-04-29T13:24:52.443Z,99823.91
2023-04-29T13:27:19.885Z,99793.09
2023-04-29T13:29:47.309Z,99771.94
2023-04-29T13:32:18.116Z,99751.72
2023-04-29T13:34:45.927Z,99787.88
2023-04-29T13:37:13.395Z,99809.03
2023-04-29T13:39:41.655Z,99806.28
2023-04-29T13:44:51.595Z,99769.59
2023-04-29T13:47:25.044Z,99811.66
2023-04-29T13:50:22.272Z,99814.81
2023-04-29T13:53:23.532Z,99790.94
2023-04-29T13:56:24.769Z,99772.38
2023-04-29T13:58:56.175Z,99776.72
2023-04-29T14:03:35.789Z,99801.78
2023-04-29T14:06:03.811Z,99721.19
2023-04-29T14:08:31.256Z,99753.59
2023-04-29T14:10:58.629Z,99785.19
2023-04-29T14:13:26.153Z,99772.81
2023-04-29T14:15:54.663Z,99785.00
2023-04-29T14:18:22.104Z,99708.16
2023-04-29T14:20:49.858Z,99728.53
2023-04-29T14:23:17.161Z,99770.75
2023-04-29T14:25:44.667Z,99760.94
2023-04-29T14:28:12.716Z,99721.16
2023-04-29T14:30:41.070Z,99712.97
2023-04-29T14:33:08.403Z,99684.50
2023-04-29T14:35:35.793Z,99699.38
2023-04-29T14:38:03.283Z,99655.31
2023-04-29T14:40:30.664Z,99691.16
2023-04-29T14:42:58.150Z,99690.69
2023-04-29T14:45:25.649Z,99661.59
2023-04-29T14:47:53.037Z,99638.63
2023-04-29T14:50:20.647Z,99643.06
2023-04-29T14:52:48.037Z,99651.63
2023-04-29T14:55:15.611Z,99683.75
2023-04-29T14:57:42.909Z,99676.47
2023-04-29T15:00:12.314Z,99647.94
2023-04-29T15:02:39.776Z,99605.63
2023-04-29T15:05:07.435Z,99730.19
2023-04-29T15:07:34.471Z,99732.03
2023-04-29T15:10:02.232Z,99580.63
2023-04-29T15:12:29.719Z,99564.69
2023-04-29T15:14:57.073Z,99562.03
2023-04-29T15:17:25.132Z,99469.41
2023-04-29T15:19:52.543Z,99498.56
2023-04-29T15:22:19.495Z,99547.16
2023-04-29T15:27:16.285Z,99537.25
2023-04-29T15:29:43.697Z,99521.25
2023-04-29T15:32:11.112Z,99474.19
2023-04-29T15:34:38.616Z,99527.81
2023-04-29T15:37:05.708Z,99528.16
2023-04-29T15:39:32.672Z,99603.84
2023-04-29T15:42:00.238Z,99544.88
2023-04-29T15:44:27.592Z,99566.56
2023-04-29T15:46:55.517Z,99490.56
2023-04-29T15:49:24.419Z,99514.59
2023-04-29T15:51:51.830Z,99580.88
2023-04-29T15:54:19.199Z,99648.03
2023-04-29T15:56:46.686Z,99610.69
2023-04-29T15:59:17.569Z,99617.63
2023-04-29T16:01:45.347Z,99615.78
2023-04-29T16:04:44.523Z,99620.22
2023-04-29T16:07:12.333Z,99604.66
2023-04-29T16:09:39.751Z,99613.56
2023-04-29T16:12:08.121Z,99619.13
2023-04-29T16:14:35.671Z,99613.19
2023-04-29T16:17:05.583Z,99626.75
2023-04-29T16:19:35.971Z,99622.59
2023-04-29T16:22:04.006Z,99650.75
2023-04-29T16:24:31.500Z,99621.75
2023-04-29T16:26:59.113Z,99650.81
2023-04-29T16:29:26.850Z,99625.44
2023-04-29T16:31:54.432Z,99639.50
2023-04-29T16:34:21.957Z,99632.69
2023-04-29T16:36:49.377Z,99651.13
2023-04-29T16:39:17.005Z,99656.44
2023-04-29T16:41:44.463Z,99647.13
2023-04-29T16:44:12.779Z,99667.38
2023-04-29T16:46:40.341Z,99678.63
2023-04-29T16:49:07.577Z,99652.22
2023-04-29T16:51:35.193Z,99645.13
2023-04-29T16:54:02.810Z,99628.38
2023-04-29T16:56:30.196Z,99580.13
2023-04-29T16:58:57.806Z,99598.56
2023-04-29T17:01:25.220Z,99623.00
2023-04-29T17:03:52.707Z,99604.72
2023-04-29T17:06:20.149Z,99613.34
2023-04-29T17:08:50.020Z,99623.16
2023-04-29T17:11:18.750Z,99611.78
2023-04-29T17:13:46.374Z,99623.25
2023-04-29T17:16:16.921Z,99620.00
2023-04-29T17:18:44.568Z,99608.63
2023-04-29T17:21:12.044Z,99622.81
2023-04-29T17:23:39.956Z,99638.69
2023-04-29T17:26:07.733Z,99646.72
2023-04-29T17:28:35.195Z,99646.97
2023-04-29T17:31:02.614Z,99673.69
2023-04-29T17:33:33.971Z,99688.16
2023-04-29T17:36:06.301Z,99721.72
2023-04-29T17:38:33.872Z,99735.25
2023-04-29T17:41:02.011Z,99747.75
2023-04-29T17:43:32.469Z,99766.50
2023-04-29T17:46:00.041Z,99781.69
2023-04-29T17:48:27.608Z,99809.94
2023-04-29T17:50:55.112Z,99829.41
2023-04-29T17:53:22.503Z,99838.41
2023-04-29T17:55:49.442Z,99834.16
2023-04-29T17:58:16.857Z,99838.78
2023-04-29T18:00:45.374Z,99857.31
2023-04-29T18:03:12.948Z,99874.03
2023-04-29T18:05:40.763Z,99869.94
2023-04-29T18:08:08.246Z,99891.22
2023-04-29T18:10:35.627Z,99909.09
2023-04-29T18:13:03.561Z,99923.41
2023-04-29T18:15:30.992Z,99936.63
2023-04-29T18:17:58.879Z,99947.41
2023-04-29T18:20:26.269Z,99953.63
2023-04-29T18:22:53.663Z,99973.06
2023-04-29T18:25:21.239Z,99987.25
2023-04-29T18:27:48.722Z,99980.34
2023-04-29T18:30:16.674Z,99991.88
2023-04-29T18:32:44.286Z,100005.22
2023-04-29T18:35:11.388Z,100026.38
2023-04-29T18:37:38.793Z,100030.03
2023-04-29T18:40:09.546Z,100036.16
2023-04-29T18:42:36.542Z,100039.81
2023-04-29T18:45:04.084Z,100041.63
2023-04-29T18:47:31.137Z,100049.59
2023-04-29T18:49:58.576Z,100051.41
2023-04-29T18:52:26.260Z,100062.94
2023-04-29T18:54:53.649Z,100062.06
2023-04-29T18:57:20.695Z,100071.78
2023-04-29T18:59:48.047Z,100074.44
2023-04-29T19:02:15.011Z,100079.84
2023-04-29T19:04:42.372Z,100098.38
2023-04-29T19:07:09.272Z,100108.97
2023-04-29T19:09:36.459Z,100101.06
2023-04-29T19:12:04.655Z,100116.06
2023-04-29T19:14:34.322Z,100123.13
2023-04-29T19:17:01.560Z,100123.19
2023-04-29T19:19:28.553Z,100137.31
2023-04-29T19:21:57.319Z,100139.97
2023-04-29T19:24:24.697Z,100153.28
2023-04-29T19:26:52.112Z,100158.59
2023-04-29T19:29:19.100Z,100170.97
2023-04-29T19:31:46.542Z,100175.41
2023-04-29T19:34:13.940Z,100174.56
2023-04-29T19:36:42.819Z,100187.81
2023-04-29T19:39:11.165Z,100197.53
2023-04-29T19:41:38.248Z,100195.78
2023-04-29T19:44:05.575Z,100209.03
2023-04-29T19:46:33.504Z,100212.59
2023-04-29T19:49:00.572Z,100225.88
2023-04-29T19:51:28.166Z,100225.88
2023-04-29T19:54:01.711Z,100244.47
2023-04-29T19:56:29.118Z,100246.25
2023-04-29T19:58:56.974Z,100251.56
2023-04-29T20:01:24.378Z,100245.38
2023-04-29T20:03:51.770Z,100251.56
2023-04-29T20:06:19.943Z,100255.09
2023-04-29T20:08:47.597Z,100246.25
2023-04-29T20:11:15.076Z,100263.06
2023-04-29T20:13:42.466Z,100274.56
2023-04-29T20:16:11.183Z,100274.56
2023-04-29T20:18:40.862Z,100276.34
2023-04-29T20:21:08.443Z,100292.25
2023-04-29T20:23:35.869Z,100297.56
2023-04-29T20:26:03.966Z,100307.28
2023-04-29T20:28:31.404Z,100314.34
2023-04-29T20:30:58.753Z,100313.47
2023-04-29T20:33:26.302Z,100317.00
2023-04-29T20:35:53.406Z,100329.41
2023-04-29T20:38:22.426Z,100338.25
2023-04-29T20:40:54.388Z,100347.09
2023-04-29T20:43:21.466Z,100339.13
2023-04-29T20:45:48.817Z,100350.63
2023-04-29T20:48:16.333Z,100347.97
2023-04-29T20:50:43.816Z,100352.38
2023-04-29T20:53:11.269Z,100343.53
2023-04-29T20:55:38.721Z,100340.00
2023-04-29T20:58:06.098Z,100341.78
2023-04-29T21:00:33.073Z,100344.44
2023-04-29T21:03:01.480Z,100339.13
2023-04-29T21:05:28.504Z,100329.41
2023-04-29T21:07:55.599Z,100324.09
2023-04-29T21:10:22.854Z,100318.78
2023-04-29T21:12:49.816Z,100317.03
2023-04-29T21:15:17.587Z,100309.06
2023-04-29T21:17:44.964Z,100296.69
2023-04-29T21:20:12.491Z,100305.53
2023-04-29T21:22:39.893Z,100306.44
2023-04-29T21:25:07.564Z,100309.97
2023-04-29T21:27:35.999Z,100315.25
2023-04-29T21:30:04.976Z,100324.97
2023-04-29T21:32:33.807Z,100327.63
2023-04-29T21:35:01.615Z,100330.28
2023-04-29T21:37:31.946Z,100332.06
2023-04-29T21:40:00.354Z,100326.75
2023-04-29T21:42:28.078Z,100342.66
2023-04-29T21:44:57.765Z,100350.59
2023-04-29T21:47:25.566Z,100347.06
2023-04-29T21:49:54.379Z,100354.13
2023-04-29T21:52:21.985Z,100347.94
2023-04-29T21:54:49.325Z,100357.66
2023-04-29T21:57:16.306Z,100360.31
2023-04-29T21:59:43.378Z,100370.91
2023-04-29T22:02:15.106Z,100365.63
2023-04-29T22:04:42.654Z,100372.69
2023-04-29T22:07:10.122Z,100378.84
2023-04-29T22:09:37.566Z,100384.16
2023-04-29T22:12:05.105Z,100391.22
2023-04-29T22:14:32.093Z,100398.28
2023-04-29T22:16:59.445Z,100398.28
2023-04-29T22:19:30.176Z,100390.34
2023-04-29T22:21:57.587Z,100395.63
2023-04-29T22:24:24.958Z,100402.69
2023-04-29T22:26:52.341Z,100396.53
2023-04-29T22:29:20.903Z,100400.91
2023-04-29T22:31:48.296Z,100401.81
2023-04-29T22:34:15.845Z,100406.22
2023-04-29T22:36:43.234Z,100410.63
2023-04-29T22:39:10.812Z,100418.56
2023-04-29T22:41:38.180Z,100426.50
2023-04-29T22:44:05.185Z,100437.09
2023-04-29T22:46:33.568Z,100448.59
2023-04-29T22:49:00.764Z,100453.91
2023-04-29T22:51:27.769Z,100462.69
2023-04-29T22:53:55.146Z,100454.78
2023-04-29T22:56:22.753Z,100466.28
2023-04-29T22:58:50.370Z,100447.72
2023-04-29T23:01:17.345Z,100445.06
2023-04-29T23:03:44.447Z,100437.13
2023-04-29T23:06:11.962Z,100432.69
2023-04-29T23:08:39.001Z,100435.38
2023-04-29T23:11:06.538Z,100435.34
2023-04-29T23:13:33.892Z,100430.06
2023-04-29T23:16:01.616Z,100433.59
2023-04-29T23:18:28.614Z,100439.75
2023-04-29T23:20:56.875Z,100443.31
2023-04-29T23:23:24.473Z,100446.81
2023-04-29T23:25:51.861Z,100459.16
2023-04-29T23:28:18.961Z,100455.66
2023-04-29T23:30:49.086Z,100453.88
2023-04-29T23:33:16.740Z,100461.81
2023-04-29T23:35:53.699Z,100463.50
2023-04-29T23:38:21.189Z,100476.72
2023-04-29T23:40:48.662Z,100476.75
2023-04-29T23:43:16.141Z,100476.75
2023-04-29T23:45:46.292Z,100487.38
2023-04-29T23:48:15.729Z,100486.41
2023-04-29T23:50:42.800Z,100492.56
2023-04-29T23:53:10.215Z,100501.38
2023-04-29T23:55:37.180Z,100515.53
2023-04-29T23:58:04.546Z,100515.53
